EST,Max TemperatureF,Mean TemperatureF,Min TemperatureF,Max Dew PointF,MeanDew PointF,Min DewpointF,Max Humidity, Mean Humidity, Min Humidity, Max Sea Level PressureIn, Mean Sea Level PressureIn, Min Sea Level PressureIn, Max VisibilityMiles, Mean VisibilityMiles, Min VisibilityMiles, Max Wind SpeedMPH, Mean Wind SpeedMPH, Max Gust SpeedMPH,PrecipitationIn, CloudCover, Events, WindDirDegrees
2012-1-1,58,47,35,46,33,20,83,57,31,30.08,29.97,29.81,10,10,10,25,9,38,0.08,4,Rain,245
2012-1-2,35,25,15,18,12,6,68,54,39,30.08,29.97,29.89,10,6,0,25,16,38,0.01,7,Snow,295
2012-1-3,17,15,12,9,7,3,80,67,54,30.32,30.13,29.99,10,3,1,26,14,37,0.06,8,Snow,301
2012-1-4,38,25,12,15,9,-1,76,51,25,30.31,30.17,30.03,10,10,10,22,11,29,0.00,2,,259
2012-1-5,45,39,32,22,19,16,63,47,31,30.11,30.04,29.98,10,10,10,20,11,26,0.00,2,,271
2012-1-6,58,49,39,24,22,17,48,36,24,30.05,29.99,29.92,10,10,10,20,11,25,0.00,0,,262
2012-1-7,56,48,39,46,42,28,86,64,42,30.09,29.96,29.88,10,10,6,21,10,28,0.02,6,Rain,271
2012-1-8,50,41,32,28,25,20,75,53,31,30.25,30.20,30.10,10,10,10,7,2,9,0.00,3,,273
2012-1-9,45,41,36,42,37,25,92,73,54,30.17,30.08,30.04,10,5,0,16,5,25,0.23,7,Fog-Rain,253
2012-1-10,48,41,33,36,30,21,89,63,37,30.10,30.04,29.95,10,10,10,15,5,22,0.00,2,,282
2012-1-11,46,42,38,40,38,25,89,65,41,29.93,29.68,29.49,10,8,4,23,7,36,0.80,8,Rain,115
2012-1-12,50,38,26,43,36,20,89,78,66,29.57,29.50,29.43,10,7,1,26,12,41,0.25,8,Rain-Snow,255
2012-1-13,26,23,19,19,12,9,75,69,62,30.06,29.75,29.56,10,6,1,30,15,43,T,8,Snow,275
2012-1-14,30,25,20,23,18,12,84,66,47,30.14,30.05,29.97,10,6,1,21,10,26,0.09,7,Snow,263
2012-1-15,30,27,24,23,19,15,84,69,53,30.47,30.29,30.02,10,8,2,15,6,21,0.03,6,Snow,292
2012-1-16,50,39,27,24,18,14,63,46,29,30.42,30.31,30.13,10,10,10,21,7,36,0.01,4,,167
2012-1-17,58,50,42,50,41,24,83,58,32,30.12,29.90,29.79,10,10,7,37,16,52,0.12,7,Rain,262
2012-1-18,42,32,22,32,20,12,75,66,57,30.13,30.05,29.94,10,9,2,21,8,30,T,8,Snow,306
2012-1-19,43,32,20,18,13,7,73,48,23,30.11,30.04,29.96,10,10,10,20,7,25,0.00,3,,223
2012-1-20,48,40,32,36,26,16,76,58,40,30.12,30.04,29.94,10,10,7,22,8,33,0.06,7,Rain,191
2012-1-21,50,42,33,46,40,31,96,86,76,30.12,29.89,29.79,10,4,0,15,6,24,0.47,8,Fog-Rain-Thunderstorm,239
2012-1-22,41,38,34,36,33,30,96,86,76,30.23,30.17,30.11,10,6,0,23,9,32,0.00,6,Fog,132
2012-1-23,63,52,41,46,41,37,85,66,46,30.10,29.96,29.81,10,10,9,29,12,39,0.02,6,Rain,195
2012-1-24,53,45,37,40,32,27,76,57,38,30.27,30.11,29.96,10,10,10,16,9,24,0.00,3,,279
2012-1-25,64,49,33,30,27,23,82,53,23,30.29,30.21,30.10,10,10,10,10,4,15,0.00,1,,140
2012-1-26,66,58,50,52,44,29,64,51,38,30.06,29.83,29.54,10,10,10,24,9,44,0.03,5,Rain,187
2012-1-27,62,48,33,52,39,30,83,72,60,30.04,29.75,29.46,10,10,3,37,11,48,0.42,8,Rain,277
2012-1-28,46,38,29,34,26,11,92,65,38,30.23,30.05,29.96,10,7,0,22,9,35,T,3,Fog,273
2012-1-29,42,32,22,15,12,7,65,45,25,30.30,30.23,30.17,10,10,10,29,12,38,0.00,1,,260
2012-1-30,52,39,25,20,17,14,63,45,26,30.35,30.29,30.22,10,10,10,21,10,29,0.00,1,,262
2012-1-31,62,52,42,23,18,12,39,29,19,30.30,30.23,30.14,10,10,10,22,12,29,0.00,1,,250